createdAt,value
2016-06-01T00:00:13.210Z,90.37
2016-06-01T00:01:13.228Z,90.66
2016-06-01T00:02:13.106Z,90.17
2016-06-01T00:03:13.281Z,90.37
2016-06-01T00:04:13.299Z,90.17
2016-06-01T00:05:13.333Z,90.17
2016-06-01T00:06:13.351Z,90.27
2016-06-01T00:07:13.385Z,90.94
2016-06-01T00:08:13.404Z,90.66
2016-06-01T00:09:13.437Z,90.84
2016-06-01T00:10:13.477Z,90.84
2016-06-01T00:11:27.710Z,90.75
2016-06-01T00:12:13.581Z,91.13
2016-06-01T00:13:13.627Z,91.04
2016-06-01T00:14:13.686Z,91.52
2016-06-01T00:15:13.733Z,91.23
2016-06-01T00:16:13.744Z,91.23
2016-06-01T00:17:13.789Z,91.61
2016-06-01T00:18:13.660Z,91.42
2016-06-01T00:19:13.860Z,91.13
2016-06-01T00:20:13.883Z,91.23
2016-06-01T00:21:13.920Z,91.61
2016-06-01T00:23:13.964Z,91.33
2016-06-01T00:24:13.846Z,91.13
2016-06-01T00:26:14.056Z,91.33
2016-06-01T00:27:28.263Z,90.94
2016-06-01T00:28:14.095Z,91.04
2016-06-01T00:29:14.130Z,91.9
2016-06-01T00:30:14.149Z,91.52
2016-06-01T00:31:14.183Z,91.61
2016-06-01T00:32:14.202Z,91.71
2016-06-01T00:33:14.236Z,91.9
2016-06-01T00:34:14.255Z,91.81
2016-06-01T00:36:14.308Z,92.57
2016-06-01T00:37:14.326Z,91.96
2016-06-01T00:38:14.344Z,92.91
2016-06-01T00:39:14.612Z,92.29
2016-06-01T00:41:14.431Z,92.1
2016-06-01T00:42:14.449Z,92.43
2016-06-01T00:43:28.655Z,92.48
2016-06-01T00:44:14.500Z,92.14
2016-06-01T00:45:14.519Z,92.43
2016-06-01T00:46:14.553Z,92.57
2016-06-01T00:47:14.571Z,92.33
2016-06-01T00:48:14.449Z,92.53
2016-06-01T00:49:14.624Z,92.72
2016-06-01T00:50:14.486Z,93.15
2016-06-01T00:51:14.676Z,93.01
2016-06-01T00:52:14.694Z,93.2
2016-06-01T00:53:14.729Z,93.3
2016-06-01T00:54:14.887Z,92.91
2016-06-01T00:56:14.799Z,93.01
2016-06-01T00:57:14.817Z,93.25
2016-06-01T00:58:29.038Z,92.77
2016-06-01T00:59:14.885Z,93.25
2016-06-01T01:00:14.903Z,93.15
2016-06-01T01:01:14.921Z,92.96
2016-06-01T01:02:14.956Z,93.34
2016-06-01T01:03:14.974Z,93.63
2016-06-01T01:04:15.008Z,93.25
2016-06-01T01:05:15.011Z,93.44
2016-06-01T01:06:15.044Z,93.44
2016-06-01T01:07:15.078Z,92.86
2016-06-01T01:08:15.097Z,92.77
2016-06-01T01:09:15.990Z,92.86
2016-06-01T01:10:15.149Z,93.63
2016-06-01T01:11:15.167Z,93.34
2016-06-01T01:12:15.201Z,93.34
2016-06-01T01:13:15.219Z,93.34
2016-06-01T01:14:15.238Z,93.73
2016-06-01T01:15:15.272Z,93.63
2016-06-01T01:16:15.291Z,93.73
2016-06-01T01:17:15.324Z,93.15
2016-06-01T01:18:15.342Z,93.73
2016-06-01T01:19:15.360Z,94.01
2016-06-01T01:20:15.394Z,93.92
2016-06-01T01:21:15.413Z,93.54
2016-06-01T01:22:15.432Z,93.54
2016-06-01T01:23:15.465Z,94.21
2016-06-01T01:24:15.390Z,94.31
2016-06-01T01:25:15.502Z,94.69
2016-06-01T01:26:15.535Z,94.49
2016-06-01T01:27:15.570Z,94.59
2016-06-01T01:28:15.588Z,94.59
2016-06-01T01:29:15.622Z,95.07
2016-06-01T01:30:29.812Z,94.98
2016-06-01T01:31:15.658Z,95.17
2016-06-01T01:32:15.692Z,95.26
2016-06-01T01:33:15.711Z,95.36
2016-06-01T01:34:15.745Z,95.17
2016-06-01T01:35:15.762Z,95.07
2016-06-01T01:36:15.625Z,95.17
2016-06-01T01:37:15.659Z,94.98
2016-06-01T01:38:15.678Z,95.36
2016-06-01T01:39:16.414Z,94.88
2016-06-01T01:40:15.886Z,95.07
2016-06-01T01:41:15.903Z,95.26
2016-06-01T01:42:15.938Z,95.84
2016-06-01T01:43:15.956Z,95.45
2016-06-01T01:44:15.975Z,95.55
2016-06-01T01:45:16.008Z,95.55
2016-06-01T01:46:30.214Z,95.55
2016-06-01T01:47:16.045Z,96.42
2016-06-01T01:48:16.080Z,95.75
2016-06-01T01:49:16.097Z,95.94
2016-06-01T01:50:16.132Z,95.65
2016-06-01T01:51:16.150Z,96.32
2016-06-01T01:52:16.183Z,96.32
2016-06-01T01:53:16.202Z,96.32
2016-06-01T01:54:16.220Z,96.7
2016-06-01T01:55:16.254Z,96.8
2016-06-01T01:56:16.273Z,96.89
2016-06-01T01:57:16.151Z,96.7
2016-06-01T01:58:16.324Z,96.99
2016-06-01T02:00:16.377Z,97.76
2016-06-01T02:01:16.411Z,97.14
2016-06-01T02:02:30.601Z,97.38
2016-06-01T02:03:16.447Z,97.47
2016-06-01T02:04:16.466Z,98
2016-06-01T02:05:16.500Z,97.47
2016-06-01T02:06:16.518Z,98.1
2016-06-01T02:07:16.537Z,97.81
2016-06-01T02:08:16.570Z,98.53
2016-06-01T02:09:16.666Z,97.86
2016-06-01T02:11:16.641Z,99.15
2016-06-01T02:12:16.675Z,98.29
2016-06-01T02:13:16.694Z,98.96
2016-06-01T02:15:16.745Z,98.96
2016-06-01T02:16:16.764Z,98.96
2016-06-01T02:17:16.798Z,99.15
2016-06-01T02:18:31.003Z,98.96
2016-06-01T02:19:16.835Z,98.96
2016-06-01T02:20:16.712Z,98.86
2016-06-01T02:21:16.730Z,99.15
2016-06-01T02:22:16.921Z,99.34
2016-06-01T02:23:16.938Z,99.44
2016-06-01T02:24:17.224Z,99.99
2016-06-01T02:25:16.991Z,99.99
2016-06-01T02:26:16.868Z,99.63
2016-06-01T02:28:17.062Z,99.82
2016-06-01T02:29:17.079Z,99.82
2016-06-01T02:31:17.133Z,99.99
2016-06-01T02:32:17.165Z,99.92
2016-06-01T02:33:31.373Z,99.82
2016-06-01T02:34:17.203Z,99.92
2016-06-01T02:35:17.237Z,99.73
2016-06-01T02:36:17.099Z,99.99
2016-06-01T02:37:17.289Z,99.99
2016-06-01T02:38:17.306Z,99.99
2016-06-01T02:39:17.325Z,99.99
2016-06-01T02:41:17.378Z,99.99
2016-06-01T02:42:17.412Z,99.99
2016-06-01T02:45:17.482Z,99.99
2016-06-01T02:48:17.397Z,99.99
2016-06-01T02:49:17.572Z,99.99
2016-06-01T02:50:17.652Z,99.99
2016-06-01T02:51:17.482Z,99.99
2016-06-01T02:52:17.657Z,99.99
2016-06-01T02:53:17.692Z,99.99
2016-06-01T02:54:17.694Z,99.99
2016-06-01T02:55:17.775Z,99.99
2016-06-01T02:56:17.747Z,99.99
2016-06-01T02:57:17.687Z,99.99
2016-06-01T02:58:17.798Z,99.99
2016-06-01T02:59:17.818Z,99.99
2016-06-01T03:00:17.835Z,99.99
2016-06-01T03:01:17.869Z,99.99
2016-06-01T03:02:17.888Z,99.99
2016-06-01T03:03:17.937Z,99.99
2016-06-01T03:04:17.939Z,99.99
2016-06-01T03:05:32.146Z,99.99
2016-06-01T03:06:17.992Z,99.99
2016-06-01T03:07:18.026Z,99.99
2016-06-01T03:08:18.045Z,99.99
2016-06-01T03:09:18.765Z,99.99
2016-06-01T03:11:17.974Z,99.99
2016-06-01T03:12:18.134Z,99.99
2016-06-01T03:13:18.167Z,99.99
2016-06-01T03:14:18.186Z,99.99
2016-06-01T03:15:18.203Z,99.99
2016-06-01T03:17:18.100Z,99.99
2016-06-01T03:18:18.290Z,99.99
2016-06-01T03:20:18.327Z,99.99
2016-06-01T03:21:32.548Z,99.99
2016-06-01T03:22:18.379Z,99.99
2016-06-01T03:23:18.397Z,99.99
2016-06-01T03:24:18.791Z,99.99
2016-06-01T03:25:18.450Z,99.99
2016-06-01T03:26:18.483Z,99.99
2016-06-01T03:27:18.502Z,99.99
2016-06-01T03:28:18.536Z,99.99
2016-06-01T03:29:18.554Z,99.99
2016-06-01T03:31:18.591Z,99.99
2016-06-01T03:32:18.625Z,99.99
2016-06-01T03:33:18.659Z,99.99
2016-06-01T03:34:18.676Z,99.99
2016-06-01T03:35:18.695Z,99.99
2016-06-01T03:36:18.573Z,99.99
2016-06-01T03:37:32.935Z,99.99
2016-06-01T03:38:18.782Z,99.99
2016-06-01T03:39:18.800Z,99.99
2016-06-01T03:40:18.833Z,99.99
2016-06-01T03:41:18.836Z,99.99
2016-06-01T03:42:18.714Z,99.99
2016-06-01T03:43:18.904Z,99.99
2016-06-01T03:44:18.923Z,99.99
2016-06-01T03:45:18.942Z,99.99
2016-06-01T03:46:18.958Z,99.99
2016-06-01T03:47:18.992Z,99.99
2016-06-01T03:48:19.011Z,99.99
2016-06-01T03:49:19.030Z,99.99
2016-06-01T03:51:19.083Z,99.99
2016-06-01T03:52:19.115Z,99.99
2016-06-01T03:53:33.322Z,99.99
2016-06-01T03:54:19.012Z,99.99
2016-06-01T03:55:19.186Z,99.99
2016-06-01T03:56:19.205Z,99.99
2016-06-01T03:57:19.239Z,99.99
2016-06-01T03:58:19.257Z,99.99
2016-06-01T03:59:19.275Z,99.99
2016-06-01T04:00:19.309Z,99.99
2016-06-01T04:01:19.327Z,99.99
2016-06-01T04:02:19.362Z,99.99
2016-06-01T04:03:19.380Z,99.99
2016-06-01T04:04:19.399Z,99.99
2016-06-01T04:05:19.431Z,99.99
2016-06-01T04:06:19.451Z,99.99
2016-06-01T04:07:19.485Z,99.99
2016-06-01T04:08:33.690Z,99.99
2016-06-01T04:09:19.537Z,99.99
2016-06-01T04:10:19.555Z,99.99
2016-06-01T04:11:19.589Z,99.99
2016-06-01T04:12:19.451Z,99.99
2016-06-01T04:13:19.626Z,99.99
2016-06-01T04:14:19.644Z,99.99
2016-06-01T04:15:19.678Z,99.99
2016-06-01T04:16:19.696Z,99.99
2016-06-01T04:17:19.714Z,99.99
2016-06-01T04:18:19.592Z,99.99
2016-06-01T04:19:19.766Z,99.99
2016-06-01T04:20:19.801Z,99.99
2016-06-01T04:21:19.819Z,99.99
2016-06-01T04:22:19.697Z,99.99
2016-06-01T04:23:19.871Z,99.99
2016-06-01T04:24:20.108Z,99.99
2016-06-01T04:25:19.923Z,99.99
2016-06-01T04:26:19.942Z,99.99
2016-06-01T04:27:19.975Z,99.99
2016-06-01T04:28:19.994Z,99.99
2016-06-01T04:29:20.012Z,99.99
2016-06-01T04:30:20.047Z,99.99
2016-06-01T04:31:20.064Z,99.99
2016-06-01T04:32:20.099Z,99.99
2016-06-01T04:33:20.132Z,99.99
2016-06-01T04:34:20.135Z,99.99
2016-06-01T04:35:20.169Z,99.99
2016-06-01T04:36:20.187Z,99.99
2016-06-01T04:37:20.206Z,99.99
2016-06-01T04:38:20.084Z,99.99
2016-06-01T04:39:20.540Z,99.99
2016-06-01T04:40:34.479Z,99.99
2016-06-01T04:41:20.310Z,99.99
2016-06-01T04:42:20.344Z,99.99
2016-06-01T04:43:20.362Z,99.99
2016-06-01T04:44:20.381Z,99.99
2016-06-01T04:45:20.414Z,99.99
2016-06-01T04:46:20.448Z,99.99
2016-06-01T04:47:20.467Z,99.99
2016-06-01T04:48:20.500Z,99.99
2016-06-01T04:49:20.504Z,99.99
2016-06-01T04:50:20.537Z,99.99
2016-06-01T04:51:20.571Z,99.99
2016-06-01T04:52:20.575Z,99.99
2016-06-01T04:53:20.608Z,99.99
2016-06-01T04:54:20.626Z,99.99
2016-06-01T04:55:20.489Z,99.99
2016-06-01T04:56:34.866Z,99.99
2016-06-01T04:57:20.713Z,99.99
2016-06-01T04:58:20.730Z,99.99
2016-06-01T04:59:20.766Z,99.99
2016-06-01T05:00:20.627Z,99.99
2016-06-01T05:01:20.802Z,99.99
2016-06-01T05:02:20.819Z,99.99
2016-06-01T05:03:20.854Z,99.99
2016-06-01T05:04:20.888Z,99.99
2016-06-01T05:05:20.906Z,99.99
2016-06-01T05:06:20.940Z,99.99
2016-06-01T05:07:20.802Z,99.99
2016-06-01T05:08:20.993Z,99.99
2016-06-01T05:09:21.027Z,99.99
2016-06-01T05:10:21.013Z,99.99
2016-06-01T05:11:21.047Z,99.99
2016-06-01T05:12:35.253Z,99.99
2016-06-01T05:13:20.943Z,99.99
2016-06-01T05:14:20.961Z,99.99
2016-06-01T05:15:21.151Z,99.99
2016-06-01T05:16:21.170Z,99.99
2016-06-01T05:17:21.048Z,99.99
2016-06-01T05:18:21.237Z,99.99
2016-06-01T05:19:21.240Z,99.99
2016-06-01T05:20:21.275Z,99.99
2016-06-01T05:21:21.293Z,99.99
2016-06-01T05:22:21.327Z,99.99
2016-06-01T05:23:21.344Z,99.99
2016-06-01T05:24:21.661Z,99.99
2016-06-01T05:25:21.397Z,99.99
2016-06-01T05:26:21.416Z,99.4
2016-06-01T05:27:21.294Z,99.92
2016-06-01T05:28:35.655Z,99.88
2016-06-01T05:29:21.517Z,99.68
2016-06-01T05:30:21.520Z,99.25
2016-06-01T05:31:21.569Z,99.44
2016-06-01T05:32:21.588Z,99.35
2016-06-01T05:33:21.591Z,99.73
2016-06-01T05:34:21.624Z,99.73
2016-06-01T05:35:21.643Z,99.83
2016-06-01T05:36:21.661Z,99.83
2016-06-01T05:37:21.696Z,99.35
2016-06-01T05:38:21.713Z,99.92
2016-06-01T05:39:21.748Z,99.99
2016-06-01T05:40:21.765Z,99.99
2016-06-01T05:41:21.799Z,99.99
2016-06-01T05:42:21.818Z,99.99
2016-06-01T05:43:36.023Z,99.99
2016-06-01T05:44:21.870Z,99.99
2016-06-01T05:45:21.889Z,99.92
2016-06-01T05:46:21.923Z,99.99
2016-06-01T05:47:21.940Z,99.99
2016-06-01T05:48:21.975Z,99.99
2016-06-01T05:49:21.837Z,99.99
2016-06-01T05:50:22.028Z,99.99
2016-06-01T05:51:22.045Z,99.99
2016-06-01T05:52:22.064Z,99.99
2016-06-01T05:53:22.097Z,99.99
2016-06-01T05:54:21.959Z,99.99
2016-06-01T05:55:22.150Z,99.99
2016-06-01T05:56:22.184Z,99.99
2016-06-01T05:57:22.186Z,99.97
2016-06-01T05:58:22.220Z,99.99
2016-06-01T05:59:22.255Z,99.97
2016-06-01T06:00:22.273Z,99.99
2016-06-01T06:01:22.291Z,99.99
2016-06-01T06:02:22.325Z,99.99
2016-06-01T06:03:22.344Z,99.73
2016-06-01T06:04:22.361Z,99.54
2016-06-01T06:05:22.395Z,99.25
2016-06-01T06:06:22.257Z,99.35
2016-06-01T06:07:22.432Z,99.06
2016-06-01T06:08:22.466Z,99.15
2016-06-01T06:10:22.518Z,99.83
2016-06-01T06:11:22.537Z,99.25
2016-06-01T06:12:22.571Z,98.86
2016-06-01T06:13:22.433Z,98.86
2016-06-01T06:14:22.623Z,99.25
2016-06-01T06:15:36.844Z,99.15
2016-06-01T06:16:22.675Z,99.25
2016-06-01T06:17:22.693Z,99.54
2016-06-01T06:18:22.711Z,99.15
2016-06-01T06:19:22.745Z,99.06
2016-06-01T06:20:22.764Z,98.19
2016-06-01T06:21:22.797Z,98.39
2016-06-01T06:22:22.816Z,99.15
2016-06-01T06:23:22.835Z,99.06
2016-06-01T06:24:22.869Z,99.15
2016-06-01T06:26:22.920Z,98.86
2016-06-01T06:28:22.972Z,99.44
2016-06-01T06:29:22.992Z,99.44
2016-06-01T06:30:23.010Z,99.63
2016-06-01T06:31:37.215Z,99.15
2016-06-01T06:32:23.061Z,99.25
2016-06-01T06:33:23.080Z,99.83
2016-06-01T06:34:23.114Z,99.73
2016-06-01T06:35:23.149Z,99.99
2016-06-01T06:36:23.166Z,99.99
2016-06-01T06:37:23.185Z,99.92
2016-06-01T06:38:23.202Z,99.99
2016-06-01T06:39:23.112Z,99.99
2016-06-01T06:41:23.290Z,99.83
2016-06-01T06:43:23.341Z,99.99
2016-06-01T06:44:23.360Z,99.99
2016-06-01T06:45:23.393Z,99.99
2016-06-01T06:46:23.412Z,99.99
2016-06-01T06:47:37.618Z,99.99
2016-06-01T06:48:23.464Z,99.99
2016-06-01T06:49:23.482Z,99.99
2016-06-01T06:50:23.517Z,99.99
2016-06-01T06:51:23.535Z,99.99
2016-06-01T06:53:23.586Z,99.99
2016-06-01T06:54:23.449Z,99.99
2016-06-01T06:55:23.623Z,99.99
2016-06-01T06:56:23.658Z,99.99
2016-06-01T06:57:23.520Z,99.99
2016-06-01T06:58:23.711Z,99.99
2016-06-01T06:59:23.744Z,99.99
2016-06-01T07:00:23.761Z,99.99
2016-06-01T07:01:23.624Z,99.99
2016-06-01T07:02:23.814Z,99.99
2016-06-01T07:03:38.020Z,99.99
2016-06-01T07:04:23.852Z,99.99
2016-06-01T07:05:23.886Z,99.99
2016-06-01T07:06:23.903Z,99.99
2016-06-01T07:07:23.952Z,99.99
2016-06-01T07:08:23.956Z,99.99
2016-06-01T07:09:23.990Z,99.99
2016-06-01T07:10:24.008Z,99.99
2016-06-01T07:11:23.870Z,99.99
2016-06-01T07:12:24.076Z,99.99
2016-06-01T07:13:24.079Z,99.99
2016-06-01T07:14:24.112Z,99.99
2016-06-01T07:15:24.131Z,99.99
2016-06-01T07:16:24.148Z,99.99
2016-06-01T07:17:24.183Z,99.99
2016-06-01T07:18:38.389Z,99.99
2016-06-01T07:19:24.220Z,99.99
2016-06-01T07:20:24.270Z,99.99
2016-06-01T07:21:24.287Z,99.99
2016-06-01T07:22:24.306Z,99.99
2016-06-01T07:23:24.167Z,99.99
2016-06-01T07:24:25.014Z,99.99
2016-06-01T07:25:24.376Z,99.99
2016-06-01T07:26:24.395Z,99.99
2016-06-01T07:27:24.506Z,99.99
2016-06-01T07:28:24.478Z,99.99
2016-06-01T07:29:24.481Z,99.99
2016-06-01T07:30:24.499Z,99.99
2016-06-01T07:31:24.517Z,99.99
2016-06-01T07:32:24.552Z,99.99
2016-06-01T07:33:24.586Z,99.99
2016-06-01T07:34:24.603Z,99.99
2016-06-01T07:35:24.622Z,99.99
2016-06-01T07:36:24.656Z,99.99
2016-06-01T07:37:24.674Z,99.99
2016-06-01T07:38:24.692Z,99.92
2016-06-01T07:39:24.726Z,99.99
2016-06-01T07:40:24.744Z,99.99
2016-06-01T07:41:24.779Z,99.73
2016-06-01T07:42:24.797Z,99.83
2016-06-01T07:44:24.849Z,99.99
2016-06-01T07:45:24.867Z,99.99
2016-06-01T07:46:24.901Z,99.99
2016-06-01T07:48:24.938Z,99.78
2016-06-01T07:50:39.178Z,99.99
2016-06-01T07:51:25.024Z,99.92
2016-06-01T07:52:24.886Z,99.99
2016-06-01T07:53:25.061Z,99.99
2016-06-01T07:54:25.095Z,99.99
2016-06-01T07:55:25.129Z,99.99
2016-06-01T07:56:25.147Z,99.99
2016-06-01T07:57:25.165Z,99.99
2016-06-01T07:58:25.200Z,99.99
2016-06-01T07:59:25.217Z,99.99
2016-06-01T08:00:25.253Z,99.99
2016-06-01T08:01:25.113Z,99.99
2016-06-01T08:03:25.322Z,99.99
2016-06-01T08:04:25.341Z,99.99
2016-06-01T08:05:25.374Z,99.99
2016-06-01T08:06:39.580Z,99.99
2016-06-01T08:07:25.411Z,99.99
2016-06-01T08:08:25.445Z,99.99
2016-06-01T08:09:25.619Z,99.99
2016-06-01T08:11:25.515Z,99.99
2016-06-01T08:12:25.549Z,99.99
2016-06-01T08:13:25.568Z,99.99
2016-06-01T08:14:25.430Z,99.99
2016-06-01T08:15:25.621Z,99.99
2016-06-01T08:16:25.638Z,99.99
2016-06-01T08:17:25.673Z,99.99
2016-06-01T08:18:25.534Z,99.99
2016-06-01T08:19:25.709Z,99.99
2016-06-01T08:20:25.743Z,99.99
2016-06-01T08:22:39.968Z,99.99
2016-06-01T08:23:25.814Z,99.99
2016-06-01T08:24:25.831Z,99.99
2016-06-01T08:25:25.866Z,99.99
2016-06-01T08:26:25.884Z,99.99
2016-06-01T08:27:25.918Z,99.99
2016-06-01T08:28:25.936Z,99.99
2016-06-01T08:29:25.970Z,99.99
2016-06-01T08:30:25.973Z,99.99
2016-06-01T08:31:26.007Z,99.99
2016-06-01T08:34:25.922Z,99.99
2016-06-01T08:35:26.111Z,99.99
2016-06-01T08:36:26.130Z,99.99
2016-06-01T08:37:26.164Z,99.99
2016-06-01T08:38:40.369Z,99.99
2016-06-01T08:39:26.341Z,99.99
2016-06-01T08:40:26.235Z,99.99
2016-06-01T08:41:26.252Z,99.99
2016-06-01T08:42:26.286Z,99.99
2016-06-01T08:43:26.305Z,99.99
2016-06-01T08:44:26.167Z,99.99
2016-06-01T08:45:26.357Z,99.99
2016-06-01T08:46:26.391Z,99.99
2016-06-01T08:47:26.410Z,99.99
2016-06-01T08:48:26.428Z,99.99
2016-06-01T08:49:26.462Z,99.99
2016-06-01T08:51:26.514Z,99.99
2016-06-01T08:52:26.532Z,99.99
2016-06-01T08:53:40.738Z,99.99
2016-06-01T08:54:26.585Z,99.99
2016-06-01T08:55:26.603Z,99.99
2016-06-01T08:56:26.637Z,99.99
2016-06-01T08:57:26.656Z,99.99
2016-06-01T08:58:26.673Z,99.99
2016-06-01T08:59:26.706Z,99.99
2016-06-01T09:00:26.726Z,99.99
2016-06-01T09:01:26.744Z,99.99
2016-06-01T09:02:26.778Z,99.99
2016-06-01T09:03:26.797Z,99.99
2016-06-01T09:04:26.830Z,99.99
2016-06-01T09:05:26.864Z,99.99
2016-06-01T09:06:26.711Z,99.99
2016-06-01T09:07:26.900Z,99.99
2016-06-01T09:08:26.919Z,99.99
2016-06-01T09:09:26.952Z,99.99
2016-06-01T09:10:26.971Z,99.99
2016-06-01T09:11:26.989Z,99.99
2016-06-01T09:12:27.024Z,99.99
2016-06-01T09:13:27.042Z,99.99
2016-06-01T09:14:27.060Z,99.99
2016-06-01T09:15:26.939Z,99.99
2016-06-01T09:16:27.153Z,99.99
2016-06-01T09:17:27.196Z,99.99
2016-06-01T09:18:27.238Z,99.99
2016-06-01T09:19:27.297Z,99.99
2016-06-01T09:20:27.369Z,99.99
2016-06-01T09:21:27.365Z,99.99
2016-06-01T09:22:27.406Z,99.99
2016-06-01T09:23:27.434Z,99.99
2016-06-01T09:24:27.476Z,99.99
2016-06-01T09:25:41.690Z,99.99
2016-06-01T09:26:27.525Z,99.99
2016-06-01T09:27:27.562Z,99.99
2016-06-01T09:28:27.582Z,99.99
2016-06-01T09:29:27.604Z,99.99
2016-06-01T09:30:27.641Z,99.99
2016-06-01T09:31:27.660Z,99.99
2016-06-01T09:32:27.681Z,99.99
2016-06-01T09:33:27.716Z,99.99
2016-06-01T09:34:27.750Z,99.99
2016-06-01T09:35:27.754Z,99.99
2016-06-01T09:36:27.788Z,99.99
2016-06-01T09:37:27.666Z,99.99
2016-06-01T09:38:27.841Z,99.99
2016-06-01T09:40:27.894Z,99.99
2016-06-01T09:41:42.101Z,99.99
2016-06-01T09:42:27.948Z,99.99
2016-06-01T09:43:27.966Z,99.99
2016-06-01T09:44:27.984Z,99.99
2016-06-01T09:45:28.018Z,99.99
2016-06-01T09:46:28.037Z,99.99
2016-06-01T09:47:28.056Z,99.99
2016-06-01T09:48:28.074Z,99.99
2016-06-01T09:49:28.108Z,99.99
2016-06-01T09:50:28.126Z,99.99
2016-06-01T09:52:28.023Z,99.99
2016-06-01T09:54:28.480Z,99.99
2016-06-01T09:55:28.265Z,99.99
2016-06-01T09:56:28.283Z,99.99
2016-06-01T09:57:42.489Z,99.99
2016-06-01T09:58:28.335Z,99.99
2016-06-01T09:59:28.353Z,99.99
2016-06-01T10:00:28.388Z,99.99
2016-06-01T10:01:28.406Z,99.99
2016-06-01T10:02:28.425Z,99.99
2016-06-01T10:04:28.476Z,99.99
2016-06-01T10:07:28.563Z,99.99
2016-06-01T10:08:28.580Z,99.78
2016-06-01T10:09:28.583Z,99.99
2016-06-01T10:10:28.633Z,99.99
2016-06-01T10:11:28.652Z,99.99
2016-06-01T10:13:42.891Z,99.99
2016-06-01T10:14:28.737Z,99.99
2016-06-01T10:15:28.757Z,99.99
2016-06-01T10:16:28.774Z,99.99
2016-06-01T10:17:28.808Z,99.99
2016-06-01T10:18:28.826Z,99.99
2016-06-01T10:19:28.704Z,99.99
2016-06-01T10:20:28.879Z,99.99
2016-06-01T10:21:28.897Z,99.99
2016-06-01T10:22:28.775Z,99.99
2016-06-01T10:24:28.828Z,99.99
2016-06-01T10:25:29.018Z,99.99
2016-06-01T10:26:29.020Z,99.99
2016-06-01T10:27:29.053Z,99.99
2016-06-01T10:28:43.259Z,99.99
2016-06-01T10:29:29.106Z,99.99
2016-06-01T10:30:29.125Z,99.99
2016-06-01T10:31:29.158Z,99.99
2016-06-01T10:32:29.177Z,99.99
2016-06-01T10:33:29.195Z,99.99
2016-06-01T10:34:29.230Z,99.99
2016-06-01T10:35:29.247Z,99.99
2016-06-01T10:36:29.266Z,99.99
2016-06-01T10:37:29.299Z,99.99
2016-06-01T10:38:29.319Z,99.99
2016-06-01T10:39:29.477Z,99.99
2016-06-01T10:40:29.370Z,99.99
2016-06-01T10:42:29.422Z,99.99
2016-06-01T10:43:29.441Z,99.99
2016-06-01T10:44:29.474Z,99.99
2016-06-01T10:45:29.493Z,99.99
2016-06-01T10:46:29.526Z,99.99
2016-06-01T10:47:29.561Z,99.99
2016-06-01T10:48:29.579Z,99.99
2016-06-01T10:49:29.613Z,99.99
2016-06-01T10:50:29.616Z,99.3
2016-06-01T10:51:29.651Z,99.5
2016-06-01T10:52:29.668Z,99.02
2016-06-01T10:53:29.717Z,98.2
2016-06-01T10:54:29.736Z,98.77
2016-06-01T10:55:29.770Z,97.72
2016-06-01T10:56:29.617Z,98.49
2016-06-01T10:59:29.859Z,97.33
2016-06-01T11:00:44.065Z,96.75
2016-06-01T11:01:29.912Z,97.14
2016-06-01T11:02:29.772Z,97.72
2016-06-01T11:03:29.807Z,96.75
2016-06-01T11:04:29.997Z,96.08
2016-06-01T11:05:29.844Z,95.79
2016-06-01T11:06:30.049Z,96.27
2016-06-01T11:07:30.052Z,94.87
2016-06-01T11:08:30.086Z,95.5
2016-06-01T11:09:30.183Z,95.79
2016-06-01T11:10:30.138Z,94.73
2016-06-01T11:11:30.157Z,95.31
2016-06-01T11:12:30.190Z,95.64
2016-06-01T11:13:30.224Z,93.91
2016-06-01T11:14:30.243Z,94.54
2016-06-01T11:15:30.261Z,94.92
2016-06-01T11:16:44.482Z,94.44
2016-06-01T11:17:30.173Z,94.63
2016-06-01T11:18:30.348Z,94.54
2016-06-01T11:19:30.366Z,94.15
2016-06-01T11:20:30.399Z,95.98
2016-06-01T11:21:30.418Z,94.73
2016-06-01T11:22:30.451Z,94.24
2016-06-01T11:23:30.470Z,94.44
2016-06-01T11:24:30.504Z,94.06
2016-06-01T11:25:30.523Z,94.54
2016-06-01T11:26:30.540Z,94.15
2016-06-01T11:27:30.575Z,94.06
2016-06-01T11:28:30.609Z,94.54
2016-06-01T11:30:30.645Z,94.97
2016-06-01T11:31:30.522Z,94.87
2016-06-01T11:32:44.885Z,95.36
2016-06-01T11:33:30.575Z,96.03
2016-06-01T11:34:30.766Z,96.22
2016-06-01T11:35:30.800Z,96.89
2016-06-01T11:36:30.834Z,96.8
2016-06-01T11:37:30.695Z,96.7
2016-06-01T11:38:30.855Z,96.22
2016-06-01T11:40:31.297Z,95.4
2016-06-01T11:41:30.940Z,95.26
2016-06-01T11:43:30.836Z,95.11
2016-06-01T11:44:31.011Z,93.86
2016-06-01T11:45:31.046Z,93.91
2016-06-01T11:46:30.907Z,93.23
2016-06-01T11:47:31.097Z,92.27
2016-06-01T11:48:45.304Z,91.69
2016-06-01T11:49:31.149Z,91.4
2016-06-01T11:50:31.184Z,91.44
2016-06-01T11:51:31.202Z,92.02
2016-06-01T11:52:31.220Z,91.83
2016-06-01T11:53:31.254Z,91.49
2016-06-01T11:54:31.147Z,90.14
2016-06-01T11:55:31.322Z,89.37
2016-06-01T11:56:31.325Z,88.98
2016-06-01T11:57:31.359Z,88.4
2016-06-01T11:58:31.392Z,89.95
2016-06-01T11:59:31.411Z,89.65
2016-06-01T12:01:31.464Z,90.23
2016-06-01T12:02:31.497Z,88.5
2016-06-01T12:03:45.703Z,88.4
2016-06-01T12:04:31.550Z,88.31
2016-06-01T12:05:31.412Z,89.47
2016-06-01T12:06:31.601Z,88.59
2016-06-01T12:07:31.636Z,87.67
2016-06-01T12:08:31.654Z,89.22
2016-06-01T12:09:31.688Z,87.67
2016-06-01T12:10:31.705Z,87.38
2016-06-01T12:11:31.741Z,87.58
2016-06-01T12:12:31.602Z,87.58
2016-06-01T12:13:31.792Z,87.09
2016-06-01T12:14:31.811Z,87.77
2016-06-01T12:15:31.844Z,87.67
2016-06-01T12:16:31.863Z,86.94
2016-06-01T12:17:31.896Z,85.98
2016-06-01T12:18:31.930Z,85.78
2016-06-01T12:19:31.965Z,86.75
2016-06-01T12:20:31.982Z,85.01
2016-06-01T12:21:32.017Z,85.44
2016-06-01T12:22:32.035Z,84.95
2016-06-01T12:23:32.054Z,84.09
2016-06-01T12:24:31.946Z,85.15
2016-06-01T12:25:32.121Z,84.32
2016-06-01T12:27:32.173Z,83.26
2016-06-01T12:28:32.052Z,82.48
2016-06-01T12:31:32.138Z,82.62
2016-06-01T12:32:32.156Z,82.23
2016-06-01T12:33:32.345Z,83.45
2016-06-01T12:34:32.364Z,83.45
2016-06-01T12:35:46.586Z,83.22
2016-06-01T12:36:32.416Z,83.51
2016-06-01T12:37:32.451Z,83.7
2016-06-01T12:38:32.313Z,81.71
2016-06-01T12:39:32.362Z,81.75
2016-06-01T12:40:32.537Z,82.43
2016-06-01T12:41:32.555Z,80.98
2016-06-01T12:42:32.589Z,79.82
2016-06-01T12:43:32.623Z,79.72
2016-06-01T12:44:32.641Z,81.23
2016-06-01T12:47:32.727Z,80.84
2016-06-01T12:48:32.761Z,79.97
2016-06-01T12:49:32.796Z,81.23
2016-06-01T12:50:32.813Z,79.87
2016-06-01T12:51:47.019Z,81.23
2016-06-01T12:52:32.710Z,80.94
2016-06-01T12:53:32.900Z,81.32
2016-06-01T12:54:33.012Z,79.24
2016-06-01T12:55:32.937Z,78.36
2016-06-01T12:56:32.971Z,79.82
2016-06-01T12:58:33.038Z,80.74
2016-06-01T12:59:33.370Z,79.82
2016-06-01T13:00:33.090Z,80.07
2016-06-01T13:03:33.192Z,81.13
2016-06-01T13:04:33.039Z,80.88
2016-06-01T13:05:33.245Z,80.34
2016-06-01T13:06:33.263Z,80.92
2016-06-01T13:07:47.469Z,79.17
2016-06-01T13:08:33.158Z,77.47
2016-06-01T13:09:33.333Z,75.15
2016-06-01T13:10:33.399Z,75.73
2016-06-01T13:11:33.402Z,75.92
2016-06-01T13:12:33.435Z,76.41
2016-06-01T13:14:33.487Z,77.26
2016-06-01T13:15:33.521Z,75.51
2016-06-01T13:16:33.383Z,74
2016-06-01T13:17:33.589Z,75.77
2016-06-01T13:18:33.608Z,77.42
2016-06-01T13:19:33.626Z,76.15
2016-06-01T13:20:33.660Z,75.38
2016-06-01T13:21:33.694Z,74.96
2016-06-01T13:22:33.713Z,76.08
2016-06-01T13:23:47.918Z,77.59
2016-06-01T13:24:34.452Z,77.59
2016-06-01T13:25:34.174Z,79.33
2016-06-01T13:26:33.832Z,79.29
2016-06-01T13:27:33.694Z,77.2
2016-06-01T13:28:33.885Z,78.27
2016-06-01T13:29:33.762Z,76.33
2016-06-01T13:30:33.937Z,75.27
2016-06-01T13:32:33.833Z,76.43
2016-06-01T13:33:34.023Z,76.43
2016-06-01T13:34:34.041Z,77.2
2016-06-01T13:36:34.109Z,78.75
2016-06-01T13:37:34.128Z,78.66
2016-06-01T13:38:48.349Z,75.17
2016-06-01T13:39:34.195Z,75.5
2016-06-01T13:40:34.230Z,75.98
2016-06-01T13:41:34.247Z,76.18
2016-06-01T13:42:34.281Z,75.92
2016-06-01T13:43:34.158Z,76.12
2016-06-01T13:44:34.334Z,75.24
2016-06-01T13:45:34.369Z,75.4
2016-06-01T13:46:34.402Z,76.76
2016-06-01T13:52:41.275Z,76.91
2016-06-01T13:53:41.294Z,76.53
2016-06-01T13:54:41.812Z,77.59
2016-06-01T13:55:42.018Z,75.5
2016-06-01T13:56:55.570Z,77.14
2016-06-01T13:57:41.414Z,76.66
2016-06-01T14:03:58.900Z,75.7
2016-06-01T14:04:58.918Z,75.5